sensor_id;sensor_type;location;lat;lon;timestamp;temperature;humidity
57829;DHT22;43657;52.698;6.314;2023-04-09T00:01:19;8.50;99.90
57829;DHT22;43657;52.698;6.314;2023-04-09T00:03:44;8.50;99.90
57829;DHT22;43657;52.698;6.314;2023-04-09T00:06:10;8.60;99.90
57829;DHT22;43657;52.698;6.314;2023-04-09T00:08:36;8.70;99.90
57829;DHT22;43657;52.698;6.314;2023-04-09T00:11:02;8.60;99.90
57829;DHT22;43657;52.698;6.314;2023-04-09T00:13:28;8.50;99.90
57829;DHT22;43657;52.698;6.314;2023-04-09T00:15:53;8.50;99.90
57829;DHT22;43657;52.698;6.314;2023-04-09T00:18:19;8.50;99.90
57829;DHT22;43657;52.698;6.314;2023-04-09T00:20:45;8.50;99.90
57829;DHT22;43657;52.698;6.314;2023-04-09T00:23:10;8.50;99.90
57829;DHT22;43657;52.698;6.314;2023-04-09T00:25:36;8.50;99.90
57829;DHT22;43657;52.698;6.314;2023-04-09T00:28:02;8.50;99.90
57829;DHT22;43657;52.698;6.314;2023-04-09T00:30:31;8.50;99.90
57829;DHT22;43657;52.698;6.314;2023-04-09T00:32:57;8.50;99.90
57829;DHT22;43657;52.698;6.314;2023-04-09T00:35:22;8.40;99.90
57829;DHT22;43657;52.698;6.314;2023-04-09T00:37:48;8.40;99.90
57829;DHT22;43657;52.698;6.314;2023-04-09T00:40:14;8.40;99.90
57829;DHT22;43657;52.698;6.314;2023-04-09T00:42:40;8.40;99.90
57829;DHT22;43657;52.698;6.314;2023-04-09T00:45:07;8.40;99.90
57829;DHT22;43657;52.698;6.314;2023-04-09T00:47:34;8.40;99.90
57829;DHT22;43657;52.698;6.314;2023-04-09T00:50:00;8.40;99.90
57829;DHT22;43657;52.698;6.314;2023-04-09T00:52:26;8.40;99.90
57829;DHT22;43657;52.698;6.314;2023-04-09T00:54:57;8.40;99.90
57829;DHT22;43657;52.698;6.314;2023-04-09T00:57:23;8.30;99.90
57829;DHT22;43657;52.698;6.314;2023-04-09T00:59:49;8.30;99.90
57829;DHT22;43657;52.698;6.314;2023-04-09T01:02:15;8.40;99.90
57829;DHT22;43657;52.698;6.314;2023-04-09T01:04:42;8.40;99.90
57829;DHT22;43657;52.698;6.314;2023-04-09T01:09:52;8.30;99.90
57829;DHT22;43657;52.698;6.314;2023-04-09T01:12:46;8.30;99.90
57829;DHT22;43657;52.698;6.314;2023-04-09T01:15:18;8.20;99.90
57829;DHT22;43657;52.698;6.314;2023-04-09T01:17:53;8.20;99.90
57829;DHT22;43657;52.698;6.314;2023-04-09T01:20:41;8.30;99.90
57829;DHT22;43657;52.698;6.314;2023-04-09T01:26:32;8.30;99.90
57829;DHT22;43657;52.698;6.314;2023-04-09T01:29:02;8.20;99.90
57829;DHT22;43657;52.698;6.314;2023-04-09T01:31:34;8.20;99.90
57829;DHT22;43657;52.698;6.314;2023-04-09T01:34:04;8.20;99.90
57829;DHT22;43657;52.698;6.314;2023-04-09T01:36:31;8.20;99.90
57829;DHT22;43657;52.698;6.314;2023-04-09T01:38:59;8.20;99.90
57829;DHT22;43657;52.698;6.314;2023-04-09T01:41:25;8.20;99.90
57829;DHT22;43657;52.698;6.314;2023-04-09T01:43:52;8.20;99.90
57829;DHT22;43657;52.698;6.314;2023-04-09T01:46:22;8.30;99.90
57829;DHT22;43657;52.698;6.314;2023-04-09T01:48:55;8.20;99.90
57829;DHT22;43657;52.698;6.314;2023-04-09T01:51:21;8.20;99.90
57829;DHT22;43657;52.698;6.314;2023-04-09T01:53:48;8.10;99.90
57829;DHT22;43657;52.698;6.314;2023-04-09T01:56:14;8.10;99.90
57829;DHT22;43657;52.698;6.314;2023-04-09T01:58:39;8.10;99.90
57829;DHT22;43657;52.698;6.314;2023-04-09T02:01:09;8.10;99.90
57829;DHT22;43657;52.698;6.314;2023-04-09T02:03:51;8.10;99.90
57829;DHT22;43657;52.698;6.314;2023-04-09T02:08:45;8.00;99.90
57829;DHT22;43657;52.698;6.314;2023-04-09T02:11:13;8.00;99.90
57829;DHT22;43657;52.698;6.314;2023-04-09T02:13:39;8.00;99.90
57829;DHT22;43657;52.698;6.314;2023-04-09T02:16:10;8.00;99.90
57829;DHT22;43657;52.698;6.314;2023-04-09T02:18:41;8.00;99.90
57829;DHT22;43657;52.698;6.314;2023-04-09T02:21:08;8.00;99.90
57829;DHT22;43657;52.698;6.314;2023-04-09T02:23:35;8.00;99.90
57829;DHT22;43657;52.698;6.314;2023-04-09T02:26:01;7.90;99.90
57829;DHT22;43657;52.698;6.314;2023-04-09T02:28:27;8.00;99.90
57829;DHT22;43657;52.698;6.314;2023-04-09T02:30:55;7.90;99.90
57829;DHT22;43657;52.698;6.314;2023-04-09T02:33:20;7.90;99.90
57829;DHT22;43657;52.698;6.314;2023-04-09T02:35:46;8.00;99.90
57829;DHT22;43657;52.698;6.314;2023-04-09T02:38:17;8.00;99.90
57829;DHT22;43657;52.698;6.314;2023-04-09T02:40:42;7.90;99.90
57829;DHT22;43657;52.698;6.314;2023-04-09T02:43:11;7.90;99.90
57829;DHT22;43657;52.698;6.314;2023-04-09T02:45:36;7.90;99.90
57829;DHT22;43657;52.698;6.314;2023-04-09T02:48:05;7.90;99.90
57829;DHT22;43657;52.698;6.314;2023-04-09T02:50:30;8.00;99.90
57829;DHT22;43657;52.698;6.314;2023-04-09T02:52:56;7.90;99.90
57829;DHT22;43657;52.698;6.314;2023-04-09T02:55:22;7.80;99.90
57829;DHT22;43657;52.698;6.314;2023-04-09T02:57:47;7.90;99.90
57829;DHT22;43657;52.698;6.314;2023-04-09T03:00:13;7.80;99.90
57829;DHT22;43657;52.698;6.314;2023-04-09T03:02:39;7.80;99.90
57829;DHT22;43657;52.698;6.314;2023-04-09T03:05:05;7.80;99.90
57829;DHT22;43657;52.698;6.314;2023-04-09T03:07:31;7.80;99.90
57829;DHT22;43657;52.698;6.314;2023-04-09T03:09:57;7.80;99.90
57829;DHT22;43657;52.698;6.314;2023-04-09T03:12:22;7.80;99.90
57829;DHT22;43657;52.698;6.314;2023-04-09T03:14:48;7.70;99.90
57829;DHT22;43657;52.698;6.314;2023-04-09T03:17:14;7.70;99.90
57829;DHT22;43657;52.698;6.314;2023-04-09T03:19:40;7.70;99.90
57829;DHT22;43657;52.698;6.314;2023-04-09T03:22:05;7.70;99.90
57829;DHT22;43657;52.698;6.314;2023-04-09T03:24:34;7.70;99.90
57829;DHT22;43657;52.698;6.314;2023-04-09T03:27:02;7.70;99.90
57829;DHT22;43657;52.698;6.314;2023-04-09T03:29:28;7.80;99.90
57829;DHT22;43657;52.698;6.314;2023-04-09T03:31:54;7.80;99.90
57829;DHT22;43657;52.698;6.314;2023-04-09T03:34:20;7.80;99.90
57829;DHT22;43657;52.698;6.314;2023-04-09T03:36:45;7.80;99.90
57829;DHT22;43657;52.698;6.314;2023-04-09T03:39:11;7.80;99.90
57829;DHT22;43657;52.698;6.314;2023-04-09T03:41:37;7.80;99.90
57829;DHT22;43657;52.698;6.314;2023-04-09T03:44:03;7.80;99.90
57829;DHT22;43657;52.698;6.314;2023-04-09T03:46:31;7.80;99.90
57829;DHT22;43657;52.698;6.314;2023-04-09T03:49:00;7.80;99.90
57829;DHT22;43657;52.698;6.314;2023-04-09T03:51:25;7.80;99.90
57829;DHT22;43657;52.698;6.314;2023-04-09T03:53:51;7.80;99.90
57829;DHT22;43657;52.698;6.314;2023-04-09T03:56:17;7.90;99.90
57829;DHT22;43657;52.698;6.314;2023-04-09T03:58:43;7.90;99.90
57829;DHT22;43657;52.698;6.314;2023-04-09T04:01:08;7.80;99.90
57829;DHT22;43657;52.698;6.314;2023-04-09T04:03:37;7.90;99.90
57829;DHT22;43657;52.698;6.314;2023-04-09T04:06:07;7.90;99.90
57829;DHT22;43657;52.698;6.314;2023-04-09T04:08:33;7.90;99.90
57829;DHT22;43657;52.698;6.314;2023-04-09T04:11:03;7.90;99.90
57829;DHT22;43657;52.698;6.314;2023-04-09T04:13:29;7.90;99.90
57829;DHT22;43657;52.698;6.314;2023-04-09T04:15:55;7.90;99.90
57829;DHT22;43657;52.698;6.314;2023-04-09T04:18:20;7.80;99.90
57829;DHT22;43657;52.698;6.314;2023-04-09T04:20:46;7.80;99.90
57829;DHT22;43657;52.698;6.314;2023-04-09T04:23:12;7.80;99.90
57829;DHT22;43657;52.698;6.314;2023-04-09T04:25:40;7.70;99.90
57829;DHT22;43657;52.698;6.314;2023-04-09T04:28:06;7.90;99.90
57829;DHT22;43657;52.698;6.314;2023-04-09T04:30:32;7.80;99.90
57829;DHT22;43657;52.698;6.314;2023-04-09T04:32:57;7.70;99.90
57829;DHT22;43657;52.698;6.314;2023-04-09T04:35:23;7.70;99.90
57829;DHT22;43657;52.698;6.314;2023-04-09T04:37:49;7.70;99.90
57829;DHT22;43657;52.698;6.314;2023-04-09T04:40:17;7.70;99.90
57829;DHT22;43657;52.698;6.314;2023-04-09T04:42:46;7.70;99.90
57829;DHT22;43657;52.698;6.314;2023-04-09T04:45:14;7.70;99.90
57829;DHT22;43657;52.698;6.314;2023-04-09T04:47:40;7.70;99.90
57829;DHT22;43657;52.698;6.314;2023-04-09T04:50:06;7.70;99.90
57829;DHT22;43657;52.698;6.314;2023-04-09T04:52:32;7.70;99.90
57829;DHT22;43657;52.698;6.314;2023-04-09T04:54:58;7.70;99.90
57829;DHT22;43657;52.698;6.314;2023-04-09T04:57:23;7.70;99.90
57829;DHT22;43657;52.698;6.314;2023-04-09T04:59:49;7.80;99.90
57829;DHT22;43657;52.698;6.314;2023-04-09T05:02:15;7.70;99.90
57829;DHT22;43657;52.698;6.314;2023-04-09T05:04:41;7.70;99.90
57829;DHT22;43657;52.698;6.314;2023-04-09T05:07:06;7.70;99.90
57829;DHT22;43657;52.698;6.314;2023-04-09T05:09:34;7.80;99.90
57829;DHT22;43657;52.698;6.314;2023-04-09T05:12:00;7.70;99.90
57829;DHT22;43657;52.698;6.314;2023-04-09T05:14:26;7.70;99.90
57829;DHT22;43657;52.698;6.314;2023-04-09T05:16:54;7.80;99.90
57829;DHT22;43657;52.698;6.314;2023-04-09T05:19:20;7.70;99.90
57829;DHT22;43657;52.698;6.314;2023-04-09T05:21:46;7.80;99.90
57829;DHT22;43657;52.698;6.314;2023-04-09T05:24:12;7.70;99.90
57829;DHT22;43657;52.698;6.314;2023-04-09T05:26:37;7.70;99.90
57829;DHT22;43657;52.698;6.314;2023-04-09T05:29:03;7.70;99.90
57829;DHT22;43657;52.698;6.314;2023-04-09T05:31:28;7.70;99.90
57829;DHT22;43657;52.698;6.314;2023-04-09T05:33:54;7.70;99.90
57829;DHT22;43657;52.698;6.314;2023-04-09T05:36:20;7.80;99.90
57829;DHT22;43657;52.698;6.314;2023-04-09T05:38:46;7.80;99.90
57829;DHT22;43657;52.698;6.314;2023-04-09T05:41:12;7.80;99.90
57829;DHT22;43657;52.698;6.314;2023-04-09T05:43:38;7.80;99.90
57829;DHT22;43657;52.698;6.314;2023-04-09T05:46:04;7.80;99.90
57829;DHT22;43657;52.698;6.314;2023-04-09T05:48:36;7.80;99.90
57829;DHT22;43657;52.698;6.314;2023-04-09T05:51:02;7.90;99.90
57829;DHT22;43657;52.698;6.314;2023-04-09T05:53:27;7.90;99.90
57829;DHT22;43657;52.698;6.314;2023-04-09T05:55:53;7.90;99.90
57829;DHT22;43657;52.698;6.314;2023-04-09T05:58:19;7.90;99.90
57829;DHT22;43657;52.698;6.314;2023-04-09T06:00:45;7.90;99.90
57829;DHT22;43657;52.698;6.314;2023-04-09T06:03:11;7.90;99.90
57829;DHT22;43657;52.698;6.314;2023-04-09T06:05:37;8.00;99.90
57829;DHT22;43657;52.698;6.314;2023-04-09T06:08:02;8.00;99.90
57829;DHT22;43657;52.698;6.314;2023-04-09T06:10:30;8.00;99.90
57829;DHT22;43657;52.698;6.314;2023-04-09T06:12:56;8.00;99.90
57829;DHT22;43657;52.698;6.314;2023-04-09T06:15:26;8.10;99.90
57829;DHT22;43657;52.698;6.314;2023-04-09T06:17:52;8.10;99.90
57829;DHT22;43657;52.698;6.314;2023-04-09T06:20:17;8.10;99.90
57829;DHT22;43657;52.698;6.314;2023-04-09T06:22:46;8.10;99.90
57829;DHT22;43657;52.698;6.314;2023-04-09T06:25:18;8.20;99.90
57829;DHT22;43657;52.698;6.314;2023-04-09T06:27:46;8.20;99.90
57829;DHT22;43657;52.698;6.314;2023-04-09T06:30:12;8.20;99.90
57829;DHT22;43657;52.698;6.314;2023-04-09T06:32:38;8.20;99.90
57829;DHT22;43657;52.698;6.314;2023-04-09T06:35:04;8.30;99.90
57829;DHT22;43657;52.698;6.314;2023-04-09T06:37:30;8.30;99.90
57829;DHT22;43657;52.698;6.314;2023-04-09T06:39:56;8.30;99.90
57829;DHT22;43657;52.698;6.314;2023-04-09T06:42:21;8.40;99.90
57829;DHT22;43657;52.698;6.314;2023-04-09T06:44:47;8.40;99.90
57829;DHT22;43657;52.698;6.314;2023-04-09T06:47:13;8.40;99.90
57829;DHT22;43657;52.698;6.314;2023-04-09T06:49:38;8.40;99.90
57829;DHT22;43657;52.698;6.314;2023-04-09T06:52:04;8.40;99.90
57829;DHT22;43657;52.698;6.314;2023-04-09T06:54:34;8.40;99.90
57829;DHT22;43657;52.698;6.314;2023-04-09T06:57:00;8.50;99.90
57829;DHT22;43657;52.698;6.314;2023-04-09T06:59:25;8.50;99.90
57829;DHT22;43657;52.698;6.314;2023-04-09T07:01:51;8.60;99.90
57829;DHT22;43657;52.698;6.314;2023-04-09T07:04:17;8.60;99.90
57829;DHT22;43657;52.698;6.314;2023-04-09T07:06:43;8.70;99.90
57829;DHT22;43657;52.698;6.314;2023-04-09T07:09:08;8.70;99.90
57829;DHT22;43657;52.698;6.314;2023-04-09T07:11:34;8.70;99.90
57829;DHT22;43657;52.698;6.314;2023-04-09T07:14:00;8.70;99.90
57829;DHT22;43657;52.698;6.314;2023-04-09T07:16:25;8.80;99.90
57829;DHT22;43657;52.698;6.314;2023-04-09T07:18:51;8.90;99.90
57829;DHT22;43657;52.698;6.314;2023-04-09T07:21:19;8.90;99.90
57829;DHT22;43657;52.698;6.314;2023-04-09T07:23:47;8.90;99.90
57829;DHT22;43657;52.698;6.314;2023-04-09T07:26:13;9.00;99.90
57829;DHT22;43657;52.698;6.314;2023-04-09T07:28:39;9.00;99.90
57829;DHT22;43657;52.698;6.314;2023-04-09T07:31:06;9.10;99.90
57829;DHT22;43657;52.698;6.314;2023-04-09T07:33:32;9.10;99.90
57829;DHT22;43657;52.698;6.314;2023-04-09T07:36:00;9.10;99.90
57829;DHT22;43657;52.698;6.314;2023-04-09T07:38:28;9.10;99.90
57829;DHT22;43657;52.698;6.314;2023-04-09T07:40:54;9.20;99.90
57829;DHT22;43657;52.698;6.314;2023-04-09T07:43:19;9.30;99.90
57829;DHT22;43657;52.698;6.314;2023-04-09T07:45:48;9.20;99.90
57829;DHT22;43657;52.698;6.314;2023-04-09T07:48:16;9.20;99.90
57829;DHT22;43657;52.698;6.314;2023-04-09T07:50:42;9.30;99.90
57829;DHT22;43657;52.698;6.314;2023-04-09T07:53:09;9.40;99.90
57829;DHT22;43657;52.698;6.314;2023-04-09T07:55:36;9.50;99.90
57829;DHT22;43657;52.698;6.314;2023-04-09T07:58:02;9.60;99.90
57829;DHT22;43657;52.698;6.314;2023-04-09T08:00:29;9.50;99.90
57829;DHT22;43657;52.698;6.314;2023-04-09T08:03:02;9.60;99.90
57829;DHT22;43657;52.698;6.314;2023-04-09T08:05:31;9.70;99.90
57829;DHT22;43657;52.698;6.314;2023-04-09T08:08:23;9.70;99.90
57829;DHT22;43657;52.698;6.314;2023-04-09T08:10:49;9.60;99.90
57829;DHT22;43657;52.698;6.314;2023-04-09T08:13:16;9.60;99.90
57829;DHT22;43657;52.698;6.314;2023-04-09T08:15:41;9.60;99.90
57829;DHT22;43657;52.698;6.314;2023-04-09T08:18:10;9.60;99.90
57829;DHT22;43657;52.698;6.314;2023-04-09T08:20:35;9.60;99.90
57829;DHT22;43657;52.698;6.314;2023-04-09T08:23:01;9.70;99.90
57829;DHT22;43657;52.698;6.314;2023-04-09T08:25:26;9.90;99.90
57829;DHT22;43657;52.698;6.314;2023-04-09T08:27:55;10.00;99.90
57829;DHT22;43657;52.698;6.314;2023-04-09T08:30:24;10.20;99.90
57829;DHT22;43657;52.698;6.314;2023-04-09T08:32:50;10.30;99.90
57829;DHT22;43657;52.698;6.314;2023-04-09T08:35:15;10.40;99.90
57829;DHT22;43657;52.698;6.314;2023-04-09T08:37:43;10.50;99.90
57829;DHT22;43657;52.698;6.314;2023-04-09T08:40:12;10.70;99.90
57829;DHT22;43657;52.698;6.314;2023-04-09T08:42:43;10.90;99.90
57829;DHT22;43657;52.698;6.314;2023-04-09T08:45:13;11.10;99.90
57829;DHT22;43657;52.698;6.314;2023-04-09T08:47:41;11.50;99.90
57829;DHT22;43657;52.698;6.314;2023-04-09T08:50:13;11.50;99.90
57829;DHT22;43657;52.698;6.314;2023-04-09T08:53:38;11.80;99.90
57829;DHT22;43657;52.698;6.314;2023-04-09T09:00:13;13.20;99.90
57829;DHT22;43657;52.698;6.314;2023-04-09T09:13:38;13.90;99.90
57829;DHT22;43657;52.698;6.314;2023-04-09T09:16:52;14.70;99.90
57829;DHT22;43657;52.698;6.314;2023-04-09T09:19:58;15.20;99.90
57829;DHT22;43657;52.698;6.314;2023-04-09T09:23:30;15.50;99.90
57829;DHT22;43657;52.698;6.314;2023-04-09T09:26:38;15.90;99.90
57829;DHT22;43657;52.698;6.314;2023-04-09T09:32:46;16.30;99.90
57829;DHT22;43657;52.698;6.314;2023-04-09T09:35:56;16.10;96.90
57829;DHT22;43657;52.698;6.314;2023-04-09T09:39:03;16.30;98.10
57829;DHT22;43657;52.698;6.314;2023-04-09T09:42:22;16.50;99.90
57829;DHT22;43657;52.698;6.314;2023-04-09T09:45:23;16.80;99.90
57829;DHT22;43657;52.698;6.314;2023-04-09T09:53:58;17.90;79.40
57829;DHT22;43657;52.698;6.314;2023-04-09T09:56:45;17.60;93.90
57829;DHT22;43657;52.698;6.314;2023-04-09T09:59:31;17.80;91.70
57829;DHT22;43657;52.698;6.314;2023-04-09T10:09:34;17.70;82.80
57829;DHT22;43657;52.698;6.314;2023-04-09T10:15:48;17.50;81.90
57829;DHT22;43657;52.698;6.314;2023-04-09T10:18:23;17.40;83.90
57829;DHT22;43657;52.698;6.314;2023-04-09T10:21:36;17.20;90.20
57829;DHT22;43657;52.698;6.314;2023-04-09T10:24:28;17.10;88.80
57829;DHT22;43657;52.698;6.314;2023-04-09T10:31:14;17.70;74.20
57829;DHT22;43657;52.698;6.314;2023-04-09T10:34:15;17.30;82.10
57829;DHT22;43657;52.698;6.314;2023-04-09T10:37:24;17.10;82.20
57829;DHT22;43657;52.698;6.314;2023-04-09T10:40:09;16.90;80.90
57829;DHT22;43657;52.698;6.314;2023-04-09T10:43:37;16.70;83.90
57829;DHT22;43657;52.698;6.314;2023-04-09T10:57:31;16.50;83.00
57829;DHT22;43657;52.698;6.314;2023-04-09T11:03:24;15.80;93.00
57829;DHT22;43657;52.698;6.314;2023-04-09T11:06:46;15.80;84.90
57829;DHT22;43657;52.698;6.314;2023-04-09T11:09:33;15.40;90.40
57829;DHT22;43657;52.698;6.314;2023-04-09T11:12:46;15.30;92.90
57829;DHT22;43657;52.698;6.314;2023-04-09T11:19:37;15.10;99.90
57829;DHT22;43657;52.698;6.314;2023-04-09T11:22:15;15.20;99.90
57829;DHT22;43657;52.698;6.314;2023-04-09T11:25:58;15.40;99.90
57829;DHT22;43657;52.698;6.314;2023-04-09T11:32:32;16.80;86.30
57829;DHT22;43657;52.698;6.314;2023-04-09T11:39:11;18.80;75.40
57829;DHT22;43657;52.698;6.314;2023-04-09T11:45:42;17.70;76.40
57829;DHT22;43657;52.698;6.314;2023-04-09T11:48:17;17.40;76.20
57829;DHT22;43657;52.698;6.314;2023-04-09T11:51:23;17.20;77.70
57829;DHT22;43657;52.698;6.314;2023-04-09T11:54:31;17.30;76.00
57829;DHT22;43657;52.698;6.314;2023-04-09T11:57:44;17.40;71.70
57829;DHT22;43657;52.698;6.314;2023-04-09T12:00:42;17.50;71.70
57829;DHT22;43657;52.698;6.314;2023-04-09T12:03:27;18.00;72.80
57829;DHT22;43657;52.698;6.314;2023-04-09T12:05:54;18.80;71.00
57829;DHT22;43657;52.698;6.314;2023-04-09T12:08:34;19.10;70.60
57829;DHT22;43657;52.698;6.314;2023-04-09T12:11:11;19.00;69.10
57829;DHT22;43657;52.698;6.314;2023-04-09T12:13:40;19.30;63.00
57829;DHT22;43657;52.698;6.314;2023-04-09T12:16:17;18.90;65.20
57829;DHT22;43657;52.698;6.314;2023-04-09T12:18:43;19.20;67.90
57829;DHT22;43657;52.698;6.314;2023-04-09T12:21:17;19.80;67.60
57829;DHT22;43657;52.698;6.314;2023-04-09T12:23:48;20.30;67.80
57829;DHT22;43657;52.698;6.314;2023-04-09T12:26:20;20.90;66.20
57829;DHT22;43657;52.698;6.314;2023-04-09T12:28:46;21.40;64.70
57829;DHT22;43657;52.698;6.314;2023-04-09T12:31:14;21.80;63.70
57829;DHT22;43657;52.698;6.314;2023-04-09T12:33:42;22.10;62.20
57829;DHT22;43657;52.698;6.314;2023-04-09T12:36:13;22.00;60.60
57829;DHT22;43657;52.698;6.314;2023-04-09T12:38:39;22.20;61.90
57829;DHT22;43657;52.698;6.314;2023-04-09T12:41:04;22.30;59.70
57829;DHT22;43657;52.698;6.314;2023-04-09T12:43:30;22.10;58.50
57829;DHT22;43657;52.698;6.314;2023-04-09T12:45:56;21.90;58.30
57829;DHT22;43657;52.698;6.314;2023-04-09T12:48:22;21.80;58.10
57829;DHT22;43657;52.698;6.314;2023-04-09T12:50:48;21.50;59.40
57829;DHT22;43657;52.698;6.314;2023-04-09T12:53:13;21.40;54.70
57829;DHT22;43657;52.698;6.314;2023-04-09T12:55:39;20.70;57.10
57829;DHT22;43657;52.698;6.314;2023-04-09T12:58:07;20.70;58.30
57829;DHT22;43657;52.698;6.314;2023-04-09T13:00:35;20.90;59.90
57829;DHT22;43657;52.698;6.314;2023-04-09T13:03:04;21.50;61.50
57829;DHT22;43657;52.698;6.314;2023-04-09T13:05:29;21.80;55.70
57829;DHT22;43657;52.698;6.314;2023-04-09T13:08:02;21.70;53.20
57829;DHT22;43657;52.698;6.314;2023-04-09T13:10:29;21.10;56.10
57829;DHT22;43657;52.698;6.314;2023-04-09T13:12:55;21.00;58.40
57829;DHT22;43657;52.698;6.314;2023-04-09T13:15:21;21.20;59.60
57829;DHT22;43657;52.698;6.314;2023-04-09T13:17:47;21.30;57.40
57829;DHT22;43657;52.698;6.314;2023-04-09T13:20:18;21.10;59.10
57829;DHT22;43657;52.698;6.314;2023-04-09T13:22:46;21.30;58.90
57829;DHT22;43657;52.698;6.314;2023-04-09T13:25:14;21.70;56.50
57829;DHT22;43657;52.698;6.314;2023-04-09T13:27:40;21.90;55.50
57829;DHT22;43657;52.698;6.314;2023-04-09T13:30:08;22.10;56.60
57829;DHT22;43657;52.698;6.314;2023-04-09T13:32:36;22.30;56.00
57829;DHT22;43657;52.698;6.314;2023-04-09T13:35:01;22.60;55.50
57829;DHT22;43657;52.698;6.314;2023-04-09T13:37:27;22.60;54.10
57829;DHT22;43657;52.698;6.314;2023-04-09T13:39:55;22.70;54.50
57829;DHT22;43657;52.698;6.314;2023-04-09T13:42:23;22.90;53.90
57829;DHT22;43657;52.698;6.314;2023-04-09T13:44:49;22.60;53.50
57829;DHT22;43657;52.698;6.314;2023-04-09T13:47:18;22.00;54.40
57829;DHT22;43657;52.698;6.314;2023-04-09T13:49:44;21.80;54.30
57829;DHT22;43657;52.698;6.314;2023-04-09T13:52:10;21.80;55.10
57829;DHT22;43657;52.698;6.314;2023-04-09T13:54:36;22.00;56.30
57829;DHT22;43657;52.698;6.314;2023-04-09T13:57:02;22.20;56.70
57829;DHT22;43657;52.698;6.314;2023-04-09T13:59:28;22.40;55.20
57829;DHT22;43657;52.698;6.314;2023-04-09T14:01:53;22.60;54.80
57829;DHT22;43657;52.698;6.314;2023-04-09T14:04:19;22.50;53.90
57829;DHT22;43657;52.698;6.314;2023-04-09T14:06:46;22.50;54.10
57829;DHT22;43657;52.698;6.314;2023-04-09T14:09:11;22.50;53.80
57829;DHT22;43657;52.698;6.314;2023-04-09T14:11:37;22.40;52.20
57829;DHT22;43657;52.698;6.314;2023-04-09T14:14:03;22.10;52.30
57829;DHT22;43657;52.698;6.314;2023-04-09T14:16:34;22.00;52.70
57829;DHT22;43657;52.698;6.314;2023-04-09T14:19:00;21.80;51.40
57829;DHT22;43657;52.698;6.314;2023-04-09T14:21:26;21.80;52.20
57829;DHT22;43657;52.698;6.314;2023-04-09T14:23:54;21.70;51.50
57829;DHT22;43657;52.698;6.314;2023-04-09T14:26:36;21.60;52.00
57829;DHT22;43657;52.698;6.314;2023-04-09T14:29:02;21.60;52.10
57829;DHT22;43657;52.698;6.314;2023-04-09T14:31:27;21.70;52.70
57829;DHT22;43657;52.698;6.314;2023-04-09T14:33:53;21.80;53.30
57829;DHT22;43657;52.698;6.314;2023-04-09T14:36:21;21.60;52.80
57829;DHT22;43657;52.698;6.314;2023-04-09T14:38:47;21.20;53.50
57829;DHT22;43657;52.698;6.314;2023-04-09T14:41:18;20.70;54.40
57829;DHT22;43657;52.698;6.314;2023-04-09T14:43:47;20.30;55.40
57829;DHT22;43657;52.698;6.314;2023-04-09T14:46:13;19.90;55.20
57829;DHT22;43657;52.698;6.314;2023-04-09T14:48:47;19.50;55.70
57829;DHT22;43657;52.698;6.314;2023-04-09T14:51:15;19.20;56.70
57829;DHT22;43657;52.698;6.314;2023-04-09T14:53:43;18.90;56.00
57829;DHT22;43657;52.698;6.314;2023-04-09T14:56:11;18.70;56.40
57829;DHT22;43657;52.698;6.314;2023-04-09T14:58:39;18.40;56.20
57829;DHT22;43657;52.698;6.314;2023-04-09T15:01:05;18.10;55.90
57829;DHT22;43657;52.698;6.314;2023-04-09T15:03:31;17.70;57.60
57829;DHT22;43657;52.698;6.314;2023-04-09T15:06:02;17.50;58.30
57829;DHT22;43657;52.698;6.314;2023-04-09T15:08:31;17.20;59.50
57829;DHT22;43657;52.698;6.314;2023-04-09T15:10:59;17.10;58.70
57829;DHT22;43657;52.698;6.314;2023-04-09T15:13:25;16.90;59.70
57829;DHT22;43657;52.698;6.314;2023-04-09T15:15:50;16.90;59.50
57829;DHT22;43657;52.698;6.314;2023-04-09T15:18:16;16.80;59.70
57829;DHT22;43657;52.698;6.314;2023-04-09T15:20:50;17.00;60.50
57829;DHT22;43657;52.698;6.314;2023-04-09T15:23:16;17.00;61.40
57829;DHT22;43657;52.698;6.314;2023-04-09T15:25:42;17.00;61.30
57829;DHT22;43657;52.698;6.314;2023-04-09T15:28:10;16.80;61.00
57829;DHT22;43657;52.698;6.314;2023-04-09T15:30:35;16.60;59.50
57829;DHT22;43657;52.698;6.314;2023-04-09T15:33:01;16.30;61.40
57829;DHT22;43657;52.698;6.314;2023-04-09T15:35:28;16.20;61.50
57829;DHT22;43657;52.698;6.314;2023-04-09T15:37:54;16.10;61.60
57829;DHT22;43657;52.698;6.314;2023-04-09T15:40:25;16.10;62.40
57829;DHT22;43657;52.698;6.314;2023-04-09T15:42:53;16.10;63.50
57829;DHT22;43657;52.698;6.314;2023-04-09T15:45:19;16.20;63.60
57829;DHT22;43657;52.698;6.314;2023-04-09T15:47:45;16.20;62.50
57829;DHT22;43657;52.698;6.314;2023-04-09T15:50:11;16.10;62.60
57829;DHT22;43657;52.698;6.314;2023-04-09T15:52:37;16.20;63.70
57829;DHT22;43657;52.698;6.314;2023-04-09T15:55:06;16.10;63.10
57829;DHT22;43657;52.698;6.314;2023-04-09T15:57:34;16.20;62.80
57829;DHT22;43657;52.698;6.314;2023-04-09T16:00:02;16.00;63.50
57829;DHT22;43657;52.698;6.314;2023-04-09T16:02:29;16.00;63.40
57829;DHT22;43657;52.698;6.314;2023-04-09T16:04:54;15.90;62.90
57829;DHT22;43657;52.698;6.314;2023-04-09T16:07:22;15.70;62.00
57829;DHT22;43657;52.698;6.314;2023-04-09T16:09:48;15.60;63.00
57829;DHT22;43657;52.698;6.314;2023-04-09T16:12:14;15.50;63.70
57829;DHT22;43657;52.698;6.314;2023-04-09T16:14:39;15.40;63.70
57829;DHT22;43657;52.698;6.314;2023-04-09T16:17:05;15.40;64.30
57829;DHT22;43657;52.698;6.314;2023-04-09T16:19:34;15.30;64.60
57829;DHT22;43657;52.698;6.314;2023-04-09T16:22:00;15.20;64.00
57829;DHT22;43657;52.698;6.314;2023-04-09T16:24:26;15.20;64.20
57829;DHT22;43657;52.698;6.314;2023-04-09T16:26:52;15.20;64.60
57829;DHT22;43657;52.698;6.314;2023-04-09T16:29:27;15.00;65.00
57829;DHT22;43657;52.698;6.314;2023-04-09T16:31:53;15.00;66.00
57829;DHT22;43657;52.698;6.314;2023-04-09T16:34:22;15.00;65.90
57829;DHT22;43657;52.698;6.314;2023-04-09T16:36:48;15.00;66.40
57829;DHT22;43657;52.698;6.314;2023-04-09T16:39:19;14.90;65.60
57829;DHT22;43657;52.698;6.314;2023-04-09T16:41:54;14.80;65.60
57829;DHT22;43657;52.698;6.314;2023-04-09T16:44:21;14.80;65.10
57829;DHT22;43657;52.698;6.314;2023-04-09T16:46:46;14.70;65.00
57829;DHT22;43657;52.698;6.314;2023-04-09T16:49:14;14.70;65.20
57829;DHT22;43657;52.698;6.314;2023-04-09T16:51:49;14.60;65.00
57829;DHT22;43657;52.698;6.314;2023-04-09T16:54:19;14.60;65.80
57829;DHT22;43657;52.698;6.314;2023-04-09T16:56:45;14.50;66.40
57829;DHT22;43657;52.698;6.314;2023-04-09T16:59:18;14.40;66.90
57829;DHT22;43657;52.698;6.314;2023-04-09T17:01:45;14.30;67.40
57829;DHT22;43657;52.698;6.314;2023-04-09T17:04:13;14.30;67.10
57829;DHT22;43657;52.698;6.314;2023-04-09T17:06:39;14.20;67.30
57829;DHT22;43657;52.698;6.314;2023-04-09T17:09:05;14.20;67.20
57829;DHT22;43657;52.698;6.314;2023-04-09T17:11:33;14.20;68.10
57829;DHT22;43657;52.698;6.314;2023-04-09T17:13:59;14.20;69.40
57829;DHT22;43657;52.698;6.314;2023-04-09T17:16:24;14.00;70.60
57829;DHT22;43657;52.698;6.314;2023-04-09T17:18:50;13.90;69.50